Capt. Carl Page — WDC6538 — position and weather

sailwx.info

Track history (hours):
 
Tides and Currents Weather Stations Pressure Air Temp Water Temp Dewpoint Dewpoint Depression Visibility Wind Speed Wind Dir Waves Ship Positions

Capt. Carl Page

Owner: American Commercial Lines LLC, Jeffersonville, IN. More information available from US FCC via Universal Licensing System and Coast Guard Vessel Documentation Center.

Last reported at 2017-Nov-15 15:16 UTC. Time now 2017-Nov-19 17:33 UTC.
Position N 31°41' W 091°24'.

Length 55 m; draft 3.1 m.

Type: Towing. MMSI: 367057650.

Date/timePositionNaut miles runAvg speedWind from/ knotsBaromVisibWave heightAir tempDewpointWater temp
2017-Nov-15 15:16N 31°41' W 091°24'13 6.6
2017-Nov-15 13:19N 31°52' W 091°15'6 6.2
2017-Nov-15 12:17N 31°57' W 091°11'3 6.7
2017-Nov-15 11:50N 31°59' W 091°08'3 7.2
2017-Nov-15 11:24N 32°00' W 091°05'3 7.6
2017-Nov-15 11:00N 32°03' W 091°03'4 7.3
2017-Nov-15 10:28N 32°06' W 091°06'2 3.3
2017-Nov-15 10:01N 32°08' W 091°06'4 6.7
2017-Nov-15 09:28N 32°07' W 091°02'3 6.8
2017-Nov-15 09:01N 32°10' W 091°00'4 7.1
2017-Nov-15 08:30N 32°13' W 090°59'4 7.7
2017-Nov-15 08:01N 32°17' W 090°57'4 8.1
2017-Nov-15 07:31N 32°20' W 090°54'2 3.5
2017-Nov-15 07:00N 32°21' W 090°56'3 6.7
2017-Nov-15 06:30N 32°21' W 090°60'3 7.1
2017-Nov-15 06:01N 32°25' W 090°60'4 7.7
2017-Nov-15 05:30N 32°26' W 091°04'4 7.6
2017-Nov-15 05:01N 32°29' W 091°07'4 8.2
2017-Nov-15 04:30N 32°33' W 091°06'4 7.7
2017-Nov-15 04:01N 32°36' W 091°09'9 6.9
2017-Nov-15 02:43N 32°44' W 091°03'2 7.6
2017-Nov-15 02:30N 32°44' W 091°05'3 6.2
2017-Nov-15 02:01N 32°45' W 091°09'  
2017-Nov-06 22:46N 32°44' W 091°04'5 2.8
2017-Nov-06 21:08N 32°40' W 091°07'1 4.2
2017-Nov-06 21:00N 32°40' W 091°08'2 3.7
2017-Nov-06 20:29N 32°38' W 091°09'  
Track history (hours):
 
Tides and Currents Weather Stations Pressure Air Temp Water Temp Dewpoint Dewpoint Depression Visibility Wind Speed Wind Dir Waves Ship Positions

Capt. Carl Page

Owner: American Commercial Lines LLC, Jeffersonville, IN. More information available from US FCC via Universal Licensing System and Coast Guard Vessel Documentation Center.

Last reported at 2017-Nov-15 15:16 UTC. Time now 2017-Nov-19 17:33 UTC.
Position N 31°41' W 091°24'.

Length 55 m; draft 3.1 m.

Type: Towing. MMSI: 367057650.

Date/timePositionNaut miles runAvg speedWind from/ knotsBaromVisibWave heightAir tempDewpointWater temp
2017-Nov-15 15:16N 31°41' W 091°24'13 6.6
2017-Nov-15 13:19N 31°52' W 091°15'6 6.2
2017-Nov-15 12:17N 31°57' W 091°11'3 6.7
2017-Nov-15 11:50N 31°59' W 091°08'3 7.2
2017-Nov-15 11:24N 32°00' W 091°05'3 7.6
2017-Nov-15 11:00N 32°03' W 091°03'4 7.3
2017-Nov-15 10:28N 32°06' W 091°06'2 3.3
2017-Nov-15 10:01N 32°08' W 091°06'4 6.7
2017-Nov-15 09:28N 32°07' W 091°02'3 6.8
2017-Nov-15 09:01N 32°10' W 091°00'4 7.1
2017-Nov-15 08:30N 32°13' W 090°59'4 7.7
2017-Nov-15 08:01N 32°17' W 090°57'4 8.1
2017-Nov-15 07:31N 32°20' W 090°54'2 3.5
2017-Nov-15 07:00N 32°21' W 090°56'3 6.7
2017-Nov-15 06:30N 32°21' W 090°60'3 7.1
2017-Nov-15 06:01N 32°25' W 090°60'4 7.7
2017-Nov-15 05:30N 32°26' W 091°04'4 7.6
2017-Nov-15 05:01N 32°29' W 091°07'4 8.2
2017-Nov-15 04:30N 32°33' W 091°06'4 7.7
2017-Nov-15 04:01N 32°36' W 091°09'9 6.9
2017-Nov-15 02:43N 32°44' W 091°03'2 7.6
2017-Nov-15 02:30N 32°44' W 091°05'3 6.2
2017-Nov-15 02:01N 32°45' W 091°09'  
2017-Nov-06 22:46N 32°44' W 091°04'5 2.8
2017-Nov-06 21:08N 32°40' W 091°07'1 4.2
2017-Nov-06 21:00N 32°40' W 091°08'2 3.7
2017-Nov-06 20:29N 32°38' W 091°09'  

Dump ship's entire track history